createdAt,value
2023-05-21T00:02:00.647Z,55.50
2023-05-21T00:04:03.342Z,55.60
2023-05-21T00:06:05.587Z,55.20
2023-05-21T00:08:07.500Z,55.30
2023-05-21T00:10:09.505Z,55.40
2023-05-21T00:12:11.243Z,55.40
2023-05-21T00:14:12.938Z,55.80
2023-05-21T00:16:14.741Z,55.70
2023-05-21T00:18:16.693Z,56.00
2023-05-21T00:20:18.413Z,55.60
2023-05-21T00:22:20.255Z,55.40
2023-05-21T00:24:21.923Z,55.60
2023-05-21T00:26:26.417Z,55.60
2023-05-21T00:28:31.806Z,56.10
2023-05-21T00:30:33.568Z,55.80
2023-05-21T00:32:35.424Z,55.70
2023-05-21T00:34:37.273Z,55.90
2023-05-21T00:36:40.356Z,55.80
2023-05-21T00:38:45.723Z,55.80
2023-05-21T00:40:47.696Z,56.00
2023-05-21T00:42:49.857Z,55.80
2023-05-21T00:44:54.070Z,55.80
2023-05-21T00:46:55.742Z,55.80
2023-05-21T00:48:58.356Z,56.40
2023-05-21T00:51:00.204Z,56.00
2023-05-21T00:53:02.016Z,56.10
2023-05-21T00:55:03.820Z,55.90
2023-05-21T00:57:05.891Z,55.90
2023-05-21T00:59:07.630Z,55.80
2023-05-21T01:01:13.758Z,55.90
2023-05-21T01:03:16.426Z,56.10
2023-05-21T01:05:18.750Z,55.80
2023-05-21T01:07:20.525Z,55.80
2023-05-21T01:09:22.360Z,55.80
2023-05-21T01:11:30.314Z,55.90
2023-05-21T01:13:33.037Z,55.80
2023-05-21T01:15:35.644Z,55.80
2023-05-21T01:17:39.070Z,55.90
2023-05-21T01:19:41.616Z,55.90
2023-05-21T01:21:51.620Z,55.90
2023-05-21T01:23:53.328Z,55.90
2023-05-21T01:25:54.997Z,55.90
2023-05-21T01:27:57.863Z,56.00
2023-05-21T01:29:59.648Z,56.00
2023-05-21T01:32:20.345Z,56.00
2023-05-21T01:34:23.870Z,56.00
2023-05-21T01:36:29.020Z,55.90
2023-05-21T01:38:40.578Z,56.00
2023-05-21T01:40:45.117Z,55.80
2023-05-21T01:42:47.312Z,55.80
2023-05-21T01:44:50.725Z,55.80
2023-05-21T01:46:54.051Z,55.80
2023-05-21T01:48:56.216Z,55.90
2023-05-21T01:50:59.459Z,56.10
2023-05-21T01:53:03.550Z,56.10
2023-05-21T01:55:05.370Z,56.10
2023-05-21T01:57:07.177Z,56.10
2023-05-21T01:59:09.091Z,56.20
2023-05-21T02:01:11.995Z,56.10
2023-05-21T02:03:15.099Z,56.10
2023-05-21T02:05:16.877Z,56.30
2023-05-21T02:07:18.681Z,56.30
2023-05-21T02:09:20.561Z,56.20
2023-05-21T02:11:22.377Z,56.10
2023-05-21T02:13:26.578Z,56.10
2023-05-21T02:15:29.161Z,56.20
2023-05-21T02:17:33.738Z,56.20
2023-05-21T02:19:36.143Z,56.30
2023-05-21T02:21:37.897Z,55.80
2023-05-21T02:23:39.708Z,56.00
2023-05-21T02:25:41.427Z,56.80
2023-05-21T02:27:43.506Z,56.20
2023-05-21T02:29:45.366Z,56.20
2023-05-21T02:31:47.084Z,56.40
2023-05-21T02:33:49.103Z,56.40
2023-05-21T02:35:50.865Z,56.40
2023-05-21T02:37:52.605Z,56.30
2023-05-21T02:39:54.605Z,56.30
2023-05-21T02:41:56.335Z,56.40
2023-05-21T02:43:57.974Z,56.30
2023-05-21T02:45:59.758Z,56.20
2023-05-21T02:48:02.791Z,56.30
2023-05-21T02:50:08.191Z,56.30
2023-05-21T02:52:14.683Z,56.70
2023-05-21T02:54:16.383Z,56.30
2023-05-21T02:56:18.578Z,56.30
2023-05-21T02:58:23.455Z,56.40
2023-05-21T03:00:25.469Z,56.50
2023-05-21T03:02:27.272Z,56.70
2023-05-21T03:04:29.416Z,56.40
2023-05-21T03:06:32.099Z,56.50
2023-05-21T03:08:33.870Z,56.40
2023-05-21T03:10:35.555Z,56.50
2023-05-21T03:12:37.905Z,56.40
2023-05-21T03:14:39.628Z,56.60
2023-05-21T03:16:41.852Z,56.50
2023-05-21T03:18:44.067Z,56.70
2023-05-21T03:20:45.816Z,56.70
2023-05-21T03:22:48.205Z,56.70
2023-05-21T03:24:49.954Z,56.70
2023-05-21T03:26:54.497Z,56.60
2023-05-21T03:28:56.562Z,56.60
2023-05-21T03:30:58.661Z,56.40
2023-05-21T03:33:16.247Z,56.60
2023-05-21T03:35:18.563Z,56.60
2023-05-21T03:37:20.373Z,56.40
2023-05-21T03:39:22.524Z,56.50
2023-05-21T03:41:24.311Z,56.50
2023-05-21T03:43:30.888Z,56.60
2023-05-21T03:45:32.645Z,56.80
2023-05-21T03:47:52.803Z,56.70
2023-05-21T03:49:54.738Z,56.60
2023-05-21T03:51:56.468Z,56.80
2023-05-21T03:53:59.737Z,56.70
2023-05-21T03:56:01.763Z,56.60
2023-05-21T03:58:03.834Z,56.60
2023-05-21T04:00:06.568Z,56.70
2023-05-21T04:02:17.576Z,56.80
2023-05-21T04:04:19.522Z,56.70
2023-05-21T04:06:21.557Z,56.80
2023-05-21T04:08:23.361Z,56.70
2023-05-21T04:10:25.070Z,56.70
2023-05-21T04:12:26.782Z,56.60
2023-05-21T04:14:28.511Z,56.80
2023-05-21T04:16:30.538Z,56.80
2023-05-21T04:18:34.239Z,56.80
2023-05-21T04:20:36.387Z,56.80
2023-05-21T04:22:38.824Z,56.80
2023-05-21T04:24:40.623Z,56.80
2023-05-21T04:26:48.002Z,56.80
2023-05-21T04:28:51.292Z,56.80
2023-05-21T04:30:53.069Z,57.10
2023-05-21T04:32:55.303Z,56.80
2023-05-21T04:34:57.408Z,56.80
2023-05-21T04:36:59.088Z,56.80
2023-05-21T04:39:01.210Z,56.80
2023-05-21T04:41:06.825Z,56.90
2023-05-21T04:43:08.939Z,56.80
2023-05-21T04:45:11.460Z,57.00
2023-05-21T04:47:15.442Z,56.90
2023-05-21T04:49:17.377Z,56.80
2023-05-21T04:51:19.215Z,57.10
2023-05-21T04:53:21.843Z,57.00
2023-05-21T04:55:23.564Z,57.00
2023-05-21T04:57:25.427Z,57.00
2023-05-21T04:59:27.149Z,57.00
2023-05-21T05:01:29.622Z,57.00
2023-05-21T05:03:31.499Z,57.00
2023-05-21T05:05:34.689Z,57.30
2023-05-21T05:07:37.126Z,57.30
2023-05-21T05:09:38.941Z,57.40
2023-05-21T05:11:40.659Z,57.20
2023-05-21T05:13:42.412Z,57.10
2023-05-21T05:15:44.165Z,57.00
2023-05-21T05:17:48.110Z,57.10
2023-05-21T05:19:50.024Z,57.00
2023-05-21T05:21:51.737Z,57.30
2023-05-21T05:23:53.741Z,58.20
2023-05-21T05:25:59.662Z,58.90
2023-05-21T05:28:02.271Z,57.90
2023-05-21T05:30:04.209Z,57.50
2023-05-21T05:32:07.238Z,57.40
2023-05-21T05:34:08.902Z,57.40
2023-05-21T05:36:10.765Z,57.50
2023-05-21T05:38:13.466Z,57.30
2023-05-21T05:40:15.304Z,57.30
2023-05-21T05:42:17.512Z,57.30
2023-05-21T05:44:20.452Z,57.30
2023-05-21T05:46:22.490Z,57.30
2023-05-21T05:48:25.797Z,57.70
2023-05-21T05:50:27.701Z,57.40
2023-05-21T05:52:29.431Z,57.50
2023-05-21T05:54:31.190Z,57.40
2023-05-21T05:56:32.940Z,57.40
2023-05-21T05:58:34.667Z,57.40
2023-05-21T06:00:44.696Z,57.30
2023-05-21T06:02:48.234Z,57.70
2023-05-21T06:04:50.058Z,57.40
2023-05-21T06:06:52.454Z,57.40
2023-05-21T06:08:54.481Z,57.50
2023-05-21T06:10:56.228Z,57.50
2023-05-21T06:12:57.972Z,57.50
2023-05-21T06:14:59.715Z,57.40
2023-05-21T06:17:01.619Z,57.40
2023-05-21T06:19:03.393Z,57.40
2023-05-21T06:21:05.180Z,57.40
2023-05-21T06:23:08.779Z,57.50
2023-05-21T06:25:10.651Z,57.40
2023-05-21T06:27:12.806Z,57.60
2023-05-21T06:29:15.569Z,57.50
2023-05-21T06:31:17.624Z,57.60
2023-05-21T06:33:19.655Z,57.70
2023-05-21T06:35:21.936Z,57.70
2023-05-21T06:37:25.918Z,57.60
2023-05-21T06:39:28.425Z,57.60
2023-05-21T06:41:30.622Z,57.60
2023-05-21T06:43:36.822Z,57.60
2023-05-21T06:45:57.069Z,57.70
2023-05-21T06:48:12.484Z,57.70
2023-05-21T06:50:14.344Z,57.80
2023-05-21T06:52:16.088Z,57.70
2023-05-21T06:54:18.701Z,57.70
2023-05-21T06:56:21.645Z,57.70
2023-05-21T06:58:23.337Z,57.90
2023-05-21T07:00:25.436Z,57.80
2023-05-21T07:02:27.276Z,57.90
2023-05-21T07:04:29.127Z,57.90
2023-05-21T07:06:30.847Z,57.80
2023-05-21T07:08:32.805Z,57.80
2023-05-21T07:10:34.729Z,57.80
2023-05-21T07:12:37.162Z,57.80
2023-05-21T07:14:39.653Z,57.50
2023-05-21T07:16:41.597Z,57.60
2023-05-21T07:18:43.656Z,57.60
2023-05-21T07:20:47.311Z,57.70
2023-05-21T07:22:50.959Z,57.70
2023-05-21T07:24:52.729Z,57.40
2023-05-21T07:26:54.861Z,57.40
2023-05-21T07:28:56.685Z,57.30
2023-05-21T07:30:58.450Z,57.30
2023-05-21T07:33:07.185Z,57.40
2023-05-21T07:35:10.143Z,57.40
2023-05-21T07:37:12.172Z,57.30
2023-05-21T07:39:14.284Z,57.40
2023-05-21T07:41:18.845Z,57.30
2023-05-21T07:43:21.845Z,57.40
2023-05-21T07:45:23.659Z,57.30
2023-05-21T07:47:25.644Z,57.30
2023-05-21T07:49:27.407Z,57.20
2023-05-21T07:51:29.230Z,57.60
2023-05-21T07:53:32.454Z,57.10
2023-05-21T07:55:37.669Z,56.90
2023-05-21T07:57:40.099Z,57.10
2023-05-21T07:59:47.540Z,57.10
2023-05-21T08:01:49.363Z,57.40
2023-05-21T08:03:51.261Z,57.10
2023-05-21T08:05:53.340Z,57.00
2023-05-21T08:07:55.151Z,57.00
2023-05-21T08:09:57.427Z,56.80
2023-05-21T08:11:59.142Z,56.70
2023-05-21T08:14:01.038Z,56.80
2023-05-21T08:16:02.977Z,56.70
2023-05-21T08:18:05.632Z,56.70
2023-05-21T08:20:08.654Z,56.70
2023-05-21T08:22:14.572Z,56.70
2023-05-21T08:24:19.937Z,56.70
2023-05-21T08:26:22.563Z,56.70
2023-05-21T08:28:24.531Z,56.60
2023-05-21T08:30:27.487Z,56.60
2023-05-21T08:32:29.293Z,56.60
2023-05-21T08:34:31.743Z,56.60
2023-05-21T08:37:08.952Z,56.70
2023-05-21T08:39:36.528Z,56.60
2023-05-21T08:41:39.814Z,56.60
2023-05-21T08:43:42.082Z,56.60
2023-05-21T08:45:47.782Z,56.60
2023-05-21T08:47:57.581Z,56.60
2023-05-21T08:50:03.085Z,56.50
2023-05-21T08:52:06.124Z,56.50
2023-05-21T08:54:09.033Z,56.40
2023-05-21T08:56:13.086Z,56.50
2023-05-21T08:58:22.817Z,56.50
2023-05-21T09:00:25.744Z,56.60
2023-05-21T09:02:30.226Z,56.60
2023-05-21T09:04:32.641Z,56.50
2023-05-21T09:06:34.500Z,56.60
2023-05-21T09:08:38.751Z,56.50
2023-05-21T09:10:52.572Z,56.50
2023-05-21T09:12:57.955Z,56.40
2023-05-21T09:15:00.223Z,56.50
2023-05-21T09:17:07.031Z,56.50
2023-05-21T09:19:08.889Z,56.50
2023-05-21T09:21:24.504Z,56.50
2023-05-21T09:23:28.612Z,56.50
2023-05-21T09:25:31.069Z,56.40
2023-05-21T09:27:38.629Z,56.30
2023-05-21T09:29:42.276Z,56.30
2023-05-21T09:31:45.128Z,56.30
2023-05-21T09:33:48.227Z,56.30
2023-05-21T09:35:50.771Z,56.20
2023-05-21T09:37:53.139Z,56.10
2023-05-21T09:39:55.478Z,56.20
2023-05-21T09:41:57.928Z,56.00
2023-05-21T09:44:01.931Z,55.80
2023-05-21T09:46:04.387Z,55.80
2023-05-21T09:48:08.029Z,55.60
2023-05-21T09:50:13.951Z,55.70
2023-05-21T09:52:23.214Z,55.60
2023-05-21T09:54:25.966Z,55.70
2023-05-21T09:56:32.085Z,55.50
2023-05-21T09:58:34.418Z,55.40
2023-05-21T10:00:36.298Z,55.50
2023-05-21T10:02:41.713Z,55.50
2023-05-21T10:04:44.712Z,55.30
2023-05-21T10:06:47.834Z,55.30
2023-05-21T10:08:52.048Z,55.30
2023-05-21T10:10:53.930Z,55.30
2023-05-21T10:12:58.872Z,55.20
2023-05-21T10:15:01.585Z,55.10
2023-05-21T10:17:04.868Z,55.00
2023-05-21T10:19:10.803Z,55.10
2023-05-21T10:21:13.091Z,55.00
2023-05-21T10:23:15.068Z,54.80
2023-05-21T10:25:17.334Z,54.50
2023-05-21T10:27:19.680Z,54.70
2023-05-21T10:29:22.783Z,54.60
2023-05-21T10:31:25.119Z,54.60
2023-05-21T10:33:27.013Z,54.60
2023-05-21T10:35:29.679Z,54.70
2023-05-21T10:37:31.613Z,54.60
2023-05-21T10:39:33.721Z,54.50
2023-05-21T10:41:40.653Z,54.40
2023-05-21T10:43:48.681Z,54.30
2023-05-21T10:45:53.470Z,54.30
2023-05-21T10:48:13.878Z,54.20
2023-05-21T10:50:16.099Z,54.10
2023-05-21T10:52:22.288Z,54.40
2023-05-21T10:54:32.496Z,54.30
2023-05-21T10:56:40.674Z,54.40
2023-05-21T10:58:58.277Z,54.30
2023-05-21T11:01:01.529Z,54.10
2023-05-21T11:03:04.506Z,54.10
2023-05-21T11:05:07.061Z,54.20
2023-05-21T11:07:09.119Z,54.10
2023-05-21T11:09:14.144Z,54.10
2023-05-21T11:11:38.000Z,53.70
2023-05-21T11:13:49.980Z,54.00
2023-05-21T11:15:57.743Z,53.70
2023-05-21T11:17:59.650Z,53.80
2023-05-21T11:20:05.096Z,53.70
2023-05-21T11:22:08.404Z,53.50
2023-05-21T11:24:18.243Z,53.30
2023-05-21T11:26:23.730Z,53.40
2023-05-21T11:28:34.736Z,53.30
2023-05-21T11:30:37.318Z,52.50
2023-05-21T11:33:01.454Z,52.60
2023-05-21T11:35:03.405Z,52.80
2023-05-21T11:37:25.062Z,53.00
2023-05-21T11:39:26.859Z,53.10
2023-05-21T11:41:28.595Z,52.90
2023-05-21T11:43:30.944Z,52.70
2023-05-21T11:45:32.828Z,52.20
2023-05-21T11:47:34.691Z,52.60
2023-05-21T11:49:36.855Z,52.80
2023-05-21T11:51:40.242Z,52.70
2023-05-21T11:53:44.369Z,52.60
2023-05-21T11:55:47.634Z,52.30
2023-05-21T11:57:52.210Z,52.60
2023-05-21T11:59:53.999Z,52.00
2023-05-21T12:01:56.217Z,51.80
2023-05-21T12:03:58.086Z,52.10
2023-05-21T12:06:05.403Z,51.90
2023-05-21T12:08:08.635Z,51.90
2023-05-21T12:10:10.709Z,51.70
2023-05-21T12:12:14.260Z,51.20
2023-05-21T12:14:16.060Z,51.80
2023-05-21T12:16:17.884Z,51.90
2023-05-21T12:18:19.618Z,51.90
2023-05-21T12:20:21.952Z,51.20
2023-05-21T12:22:25.036Z,51.60
2023-05-21T12:24:27.037Z,51.20
2023-05-21T12:26:29.181Z,50.50
2023-05-21T12:28:31.861Z,50.80
2023-05-21T12:30:33.626Z,51.20
2023-05-21T12:32:35.491Z,51.00
2023-05-21T12:34:38.814Z,51.10
2023-05-21T12:36:46.082Z,50.90
2023-05-21T12:38:47.856Z,50.30
2023-05-21T12:40:49.568Z,50.20
2023-05-21T12:42:51.662Z,49.60
2023-05-21T12:44:53.705Z,50.50
2023-05-21T12:46:55.589Z,50.80
2023-05-21T12:48:57.403Z,50.70
2023-05-21T12:50:59.950Z,50.20
2023-05-21T12:53:02.578Z,50.60
2023-05-21T12:55:04.592Z,50.40
2023-05-21T12:57:26.251Z,50.50
2023-05-21T12:59:28.018Z,50.50
2023-05-21T13:01:48.146Z,51.10
2023-05-21T13:03:50.957Z,50.30
2023-05-21T13:05:59.535Z,50.20
2023-05-21T13:08:01.311Z,49.50
2023-05-21T13:10:04.181Z,49.60
2023-05-21T13:12:06.059Z,49.60
2023-05-21T13:14:07.757Z,50.00
2023-05-21T13:16:09.807Z,49.60
2023-05-21T13:18:17.660Z,49.60
2023-05-21T13:20:26.244Z,49.30
2023-05-21T13:22:27.964Z,49.70
2023-05-21T13:24:29.798Z,49.30
2023-05-21T13:26:31.561Z,49.10
2023-05-21T13:28:33.376Z,49.60
2023-05-21T13:30:35.394Z,49.50
2023-05-21T13:32:37.858Z,49.40
2023-05-21T13:34:39.698Z,49.00
2023-05-21T13:36:41.601Z,49.00
2023-05-21T13:38:43.369Z,49.50
2023-05-21T13:40:45.071Z,49.10
2023-05-21T13:42:47.897Z,49.30
2023-05-21T13:44:49.880Z,48.70
2023-05-21T13:46:51.605Z,48.80
2023-05-21T13:48:53.376Z,49.10
2023-05-21T13:50:55.101Z,48.90
2023-05-21T13:52:56.909Z,49.00
2023-05-21T13:54:58.671Z,48.80
2023-05-21T13:57:00.610Z,49.00
2023-05-21T13:59:05.096Z,48.70
2023-05-21T14:01:10.209Z,49.00
2023-05-21T14:03:12.219Z,48.90
2023-05-21T14:05:14.043Z,48.80
2023-05-21T14:07:16.765Z,49.00
2023-05-21T14:09:18.497Z,48.90
2023-05-21T14:11:21.648Z,48.80
2023-05-21T14:13:23.469Z,49.00
2023-05-21T14:15:25.832Z,49.10
2023-05-21T14:17:27.606Z,48.70
2023-05-21T14:19:29.604Z,48.80
2023-05-21T14:21:31.742Z,48.90
2023-05-21T14:23:33.673Z,49.00
2023-05-21T14:25:35.498Z,49.00
2023-05-21T14:27:38.279Z,48.60
2023-05-21T14:29:40.085Z,48.70
2023-05-21T14:31:41.859Z,48.70
2023-05-21T14:33:43.604Z,48.90
2023-05-21T14:35:45.524Z,48.50
2023-05-21T14:37:47.287Z,48.00
2023-05-21T14:39:49.074Z,48.00
2023-05-21T14:41:50.954Z,48.20
2023-05-21T14:43:52.836Z,48.60
2023-05-21T14:46:00.503Z,48.80
2023-05-21T14:48:08.236Z,48.20
2023-05-21T14:50:10.364Z,48.30
2023-05-21T14:52:13.228Z,48.40
2023-05-21T14:54:15.583Z,48.20
2023-05-21T14:56:17.424Z,47.80
2023-05-21T14:58:19.185Z,47.80
2023-05-21T15:00:21.021Z,47.70
2023-05-21T15:02:22.815Z,47.60
2023-05-21T15:04:24.658Z,47.20
2023-05-21T15:06:26.513Z,46.80
2023-05-21T15:08:28.241Z,46.80
2023-05-21T15:10:30.115Z,46.70
2023-05-21T15:12:31.929Z,45.80
2023-05-21T15:14:33.816Z,46.50
2023-05-21T15:16:35.593Z,46.10
2023-05-21T15:18:37.488Z,45.70
2023-05-21T15:20:39.285Z,45.40
2023-05-21T15:22:41.138Z,46.00
2023-05-21T15:24:44.537Z,46.50
2023-05-21T15:26:46.325Z,46.30
2023-05-21T15:28:48.161Z,46.40
2023-05-21T15:30:50.198Z,46.60
2023-05-21T15:32:51.984Z,46.40
2023-05-21T15:34:53.857Z,47.40
2023-05-21T15:36:57.847Z,46.10
2023-05-21T15:39:03.382Z,46.50
2023-05-21T15:41:05.525Z,46.20
2023-05-21T15:43:07.779Z,46.60
2023-05-21T15:45:09.766Z,46.30
2023-05-21T15:47:11.672Z,46.10
2023-05-21T15:49:13.516Z,46.70
2023-05-21T15:51:15.478Z,46.10
2023-05-21T15:53:17.310Z,45.30
2023-05-21T15:55:19.288Z,45.60
2023-05-21T15:57:21.094Z,45.40
2023-05-21T15:59:25.094Z,45.70
2023-05-21T16:01:28.244Z,45.40
2023-05-21T16:03:30.905Z,46.00
2023-05-21T16:05:32.762Z,45.40
2023-05-21T16:07:36.960Z,43.60
2023-05-21T16:09:39.635Z,45.20
2023-05-21T16:11:41.457Z,45.10
2023-05-21T16:13:43.359Z,45.40
2023-05-21T16:15:45.245Z,45.40
2023-05-21T16:17:47.027Z,44.70
2023-05-21T16:19:48.868Z,45.40
2023-05-21T16:21:50.700Z,45.30
2023-05-21T16:23:52.482Z,45.30
2023-05-21T16:25:54.221Z,44.90
2023-05-21T16:27:55.965Z,44.90
2023-05-21T16:29:58.386Z,45.30
2023-05-21T16:32:00.204Z,44.70
2023-05-21T16:34:01.957Z,44.70
2023-05-21T16:36:04.055Z,44.30
2023-05-21T16:38:05.880Z,44.40
2023-05-21T16:40:07.945Z,44.60
2023-05-21T16:42:09.723Z,44.50
2023-05-21T16:44:11.541Z,44.50
2023-05-21T16:46:13.424Z,44.50
2023-05-21T16:48:16.297Z,44.20
2023-05-21T16:50:19.009Z,44.00
2023-05-21T16:52:22.996Z,44.40
2023-05-21T16:54:24.753Z,44.10
2023-05-21T16:56:27.569Z,44.40
2023-05-21T16:58:29.723Z,43.80
2023-05-21T17:00:31.839Z,43.90
2023-05-21T17:02:33.912Z,43.70
2023-05-21T17:04:36.150Z,43.70
2023-05-21T17:06:37.970Z,43.90
2023-05-21T17:08:39.885Z,43.90
2023-05-21T17:10:41.660Z,43.90
2023-05-21T17:12:43.458Z,43.90
2023-05-21T17:14:45.446Z,43.90
2023-05-21T17:16:47.176Z,44.20
2023-05-21T17:18:49.020Z,44.30
2023-05-21T17:20:51.145Z,44.30
2023-05-21T17:22:52.998Z,44.20
2023-05-21T17:24:54.801Z,44.10
2023-05-21T17:26:56.620Z,44.40
2023-05-21T17:28:58.437Z,44.60
2023-05-21T17:31:01.365Z,44.70
2023-05-21T17:33:03.732Z,44.70
2023-05-21T17:35:06.033Z,44.80
2023-05-21T17:37:07.863Z,45.00
2023-05-21T17:39:09.664Z,45.10
2023-05-21T17:41:11.581Z,45.30
2023-05-21T17:43:13.355Z,45.50
2023-05-21T17:45:15.152Z,45.60
2023-05-21T17:47:16.855Z,45.70
2023-05-21T17:49:18.587Z,45.60
2023-05-21T17:51:20.427Z,46.30
2023-05-21T17:53:22.792Z,45.60
2023-05-21T17:55:24.565Z,45.60
2023-05-21T17:57:26.408Z,45.80
2023-05-21T17:59:28.181Z,45.80
2023-05-21T18:01:30.082Z,45.80
2023-05-21T18:03:32.202Z,45.90
2023-05-21T18:05:34.170Z,46.00
2023-05-21T18:07:37.133Z,46.10
2023-05-21T18:09:38.948Z,46.30
2023-05-21T18:11:42.248Z,46.40
2023-05-21T18:13:44.194Z,46.50
2023-05-21T18:15:46.160Z,46.70
2023-05-21T18:17:48.156Z,46.60
2023-05-21T18:19:50.785Z,46.60
2023-05-21T18:21:52.636Z,46.60
2023-05-21T18:23:55.091Z,46.80
2023-05-21T18:25:57.082Z,46.80
2023-05-21T18:28:00.197Z,47.00
2023-05-21T18:30:05.371Z,47.10
2023-05-21T18:32:07.474Z,47.30
2023-05-21T18:34:09.528Z,47.50
2023-05-21T18:36:11.603Z,47.50
2023-05-21T18:38:13.483Z,47.50
2023-05-21T18:40:15.370Z,47.60
2023-05-21T18:42:17.255Z,47.60
2023-05-21T18:44:19.132Z,47.70
2023-05-21T18:46:21.682Z,47.80
2023-05-21T18:48:23.527Z,47.90
2023-05-21T18:50:25.763Z,48.00
2023-05-21T18:52:27.682Z,48.00
2023-05-21T18:54:29.561Z,48.00
2023-05-21T18:56:31.451Z,48.00
2023-05-21T18:58:33.674Z,48.10
2023-05-21T19:00:35.800Z,48.80
2023-05-21T19:02:38.079Z,48.20
2023-05-21T19:04:40.008Z,48.20
2023-05-21T19:06:41.857Z,48.20
2023-05-21T19:09:00.252Z,48.30
2023-05-21T19:13:48.076Z,48.40
2023-05-21T19:15:55.478Z,48.40
2023-05-21T19:18:00.801Z,48.50
2023-05-21T19:20:05.114Z,48.40
2023-05-21T19:22:07.415Z,48.40
2023-05-21T19:24:09.337Z,48.50
2023-05-21T19:26:13.313Z,48.60
2023-05-21T19:28:15.387Z,48.50
2023-05-21T19:30:17.323Z,48.60
2023-05-21T19:32:20.768Z,48.60
2023-05-21T19:34:30.275Z,48.60
2023-05-21T19:36:48.557Z,49.40
2023-05-21T19:38:54.726Z,48.70
2023-05-21T19:40:57.058Z,48.80
2023-05-21T19:43:15.137Z,48.80
2023-05-21T19:45:25.538Z,48.90
2023-05-21T19:47:28.090Z,48.80
2023-05-21T19:49:30.452Z,48.90
2023-05-21T19:51:33.699Z,49.00
2023-05-21T19:53:35.983Z,49.00
2023-05-21T19:55:45.352Z,49.10
2023-05-21T19:57:58.064Z,49.00
2023-05-21T20:00:02.242Z,49.00
2023-05-21T20:02:16.015Z,49.10
2023-05-21T20:04:26.859Z,49.10
2023-05-21T20:06:29.342Z,49.10
2023-05-21T20:08:34.652Z,49.30
2023-05-21T20:10:36.585Z,49.80
2023-05-21T20:12:40.953Z,49.30
2023-05-21T20:15:16.773Z,49.30
2023-05-21T20:17:20.658Z,49.40
2023-05-21T20:19:22.794Z,49.30
2023-05-21T20:21:24.839Z,49.40
2023-05-21T20:23:26.658Z,49.50
2023-05-21T20:25:30.355Z,49.50
2023-05-21T20:27:34.667Z,49.50
2023-05-21T20:29:36.469Z,49.60
2023-05-21T20:31:38.630Z,49.50
2023-05-21T20:33:43.672Z,49.60
2023-05-21T20:35:45.705Z,49.70
2023-05-21T20:37:47.489Z,49.70
2023-05-21T20:39:49.312Z,49.70
2023-05-21T20:41:51.071Z,49.70
2023-05-21T20:43:52.886Z,49.80
2023-05-21T20:45:59.841Z,49.90
2023-05-21T20:48:01.944Z,49.80
2023-05-21T20:50:04.068Z,49.80
2023-05-21T20:52:06.243Z,49.90
2023-05-21T20:54:08.189Z,49.90
2023-05-21T20:56:11.712Z,50.00
2023-05-21T20:58:13.618Z,50.00
2023-05-21T21:00:16.102Z,50.10
2023-05-21T21:02:21.313Z,50.10
2023-05-21T21:04:24.578Z,50.20
2023-05-21T21:06:30.039Z,50.30
2023-05-21T21:08:31.929Z,50.30
2023-05-21T21:10:33.816Z,50.30
2023-05-21T21:12:37.988Z,50.40
2023-05-21T21:14:40.394Z,50.40
2023-05-21T21:16:42.236Z,50.40
2023-05-21T21:18:46.020Z,50.40
2023-05-21T21:20:49.802Z,50.60
2023-05-21T21:22:51.856Z,50.60
2023-05-21T21:24:53.639Z,50.60
2023-05-21T21:26:55.422Z,50.70
2023-05-21T21:28:57.352Z,50.70
2023-05-21T21:30:59.115Z,50.80
2023-05-21T21:33:01.710Z,50.80
2023-05-21T21:35:04.402Z,50.80
2023-05-21T21:37:06.284Z,50.80
2023-05-21T21:39:08.055Z,50.90
2023-05-21T21:41:09.923Z,50.90
2023-05-21T21:43:11.738Z,50.90
2023-05-21T21:45:13.544Z,50.90
2023-05-21T21:47:15.505Z,51.00
2023-05-21T21:49:17.558Z,51.10
2023-05-21T21:51:23.202Z,51.10
2023-05-21T21:53:25.431Z,51.20
2023-05-21T21:55:27.314Z,51.20
2023-05-21T21:57:29.930Z,51.20
2023-05-21T21:59:31.849Z,51.30
2023-05-21T22:01:34.047Z,51.40
2023-05-21T22:03:36.122Z,51.40
2023-05-21T22:05:38.192Z,51.30
2023-05-21T22:07:41.989Z,51.40
2023-05-21T22:09:44.688Z,51.30
2023-05-21T22:11:46.466Z,51.40
2023-05-21T22:13:48.835Z,51.40
2023-05-21T22:15:51.564Z,51.50
2023-05-21T22:17:53.525Z,51.60
2023-05-21T22:19:55.906Z,51.60
2023-05-21T22:21:59.765Z,51.60
2023-05-21T22:24:01.563Z,51.60
2023-05-21T22:26:03.496Z,51.70
2023-05-21T22:28:05.435Z,51.60
2023-05-21T22:30:07.494Z,51.70
2023-05-21T22:32:09.260Z,51.70
2023-05-21T22:34:11.055Z,51.80
2023-05-21T22:36:12.792Z,51.70
2023-05-21T22:38:14.475Z,51.80
2023-05-21T22:40:16.311Z,51.70
2023-05-21T22:42:18.142Z,51.80
2023-05-21T22:44:19.818Z,51.90
2023-05-21T22:46:21.614Z,51.80
2023-05-21T22:48:23.399Z,51.90
2023-05-21T22:50:29.114Z,51.90
2023-05-21T22:52:31.905Z,52.00
2023-05-21T22:54:33.653Z,52.00
2023-05-21T22:56:35.521Z,52.10
2023-05-21T22:58:37.262Z,52.80
2023-05-21T23:00:39.162Z,52.00
2023-05-21T23:02:41.239Z,52.10
2023-05-21T23:04:44.426Z,52.20
2023-05-21T23:06:46.450Z,52.20
2023-05-21T23:08:48.132Z,52.10
2023-05-21T23:10:49.930Z,52.20
2023-05-21T23:12:51.660Z,52.20
2023-05-21T23:14:53.340Z,52.20
2023-05-21T23:16:55.145Z,52.30
2023-05-21T23:18:56.832Z,52.30
2023-05-21T23:20:59.213Z,52.30
2023-05-21T23:23:00.965Z,52.30
2023-05-21T23:25:02.681Z,52.30
2023-05-21T23:27:04.427Z,52.30
2023-05-21T23:29:06.155Z,52.40
2023-05-21T23:31:08.123Z,52.40
2023-05-21T23:33:10.026Z,52.40
2023-05-21T23:35:14.319Z,52.50
2023-05-21T23:37:16.033Z,52.40
2023-05-21T23:39:18.331Z,52.40
2023-05-21T23:41:19.989Z,52.60
2023-05-21T23:43:21.742Z,52.70
2023-05-21T23:45:23.579Z,52.70
2023-05-21T23:47:25.844Z,52.70
2023-05-21T23:49:27.592Z,52.70
2023-05-21T23:51:29.330Z,52.70
2023-05-21T23:53:31.017Z,52.80
2023-05-21T23:55:32.712Z,52.90
2023-05-21T23:57:34.426Z,52.80
2023-05-21T23:59:36.347Z,52.80
